西安 の空港の天気 - METARとTAF

西安咸陽国際空港 ( ZLXY / XIY ) - 中国 陝西省西安市
飛行場実況気象(Metar)
観測時間08/18 11:00 CST (08/18 03:00 UTC)
風向・風速不定 1m/s
視程10km以上
天気現象
なし
気温31℃
湿度55%
気圧1009hPa
METARZLXY 180300Z VRB01MPS CAVOK 31/21 Q1009 NOSIG
過去の天気等 Google飛行場航空写真 Wunderground天気予報

過去48時間のMETAR

飛行場予報(TAF)
発表時間: 8/18 03:06 CST (8/17 19:06 UTC)
予報対象時間: 18日8時 CST ~ 19日8時 CST
風向・風速東北東 3m/s
視程6000m
なし
TAF ZLXY 171906Z 1800/1824 06003MPS 6000 NSC TX35/1808Z TN22/1821Z